sensor_id;sensor_type;location;lat;lon;timestamp;temperature;humidity
13326;DHT22;6732;51.044;3.746;2023-02-01T00:02:02;8.00;99.90
13326;DHT22;6732;51.044;3.746;2023-02-01T00:04:28;8.10;99.90
13326;DHT22;6732;51.044;3.746;2023-02-01T00:06:54;8.10;99.90
13326;DHT22;6732;51.044;3.746;2023-02-01T00:09:20;8.00;99.90
13326;DHT22;6732;51.044;3.746;2023-02-01T00:11:46;8.00;99.90
13326;DHT22;6732;51.044;3.746;2023-02-01T00:14:12;8.10;99.90
13326;DHT22;6732;51.044;3.746;2023-02-01T00:16:39;8.10;99.90
13326;DHT22;6732;51.044;3.746;2023-02-01T00:19:13;8.00;99.90
13326;DHT22;6732;51.044;3.746;2023-02-01T00:21:40;8.00;99.90
13326;DHT22;6732;51.044;3.746;2023-02-01T00:24:08;8.00;99.90
13326;DHT22;6732;51.044;3.746;2023-02-01T00:26:42;8.00;99.90
13326;DHT22;6732;51.044;3.746;2023-02-01T00:29:17;8.00;99.90
13326;DHT22;6732;51.044;3.746;2023-02-01T00:31:44;8.00;99.90
13326;DHT22;6732;51.044;3.746;2023-02-01T00:34:15;8.00;99.90
13326;DHT22;6732;51.044;3.746;2023-02-01T00:36:42;8.00;99.90
13326;DHT22;6732;51.044;3.746;2023-02-01T00:39:09;8.00;99.90
13326;DHT22;6732;51.044;3.746;2023-02-01T00:41:35;7.90;99.90
13326;DHT22;6732;51.044;3.746;2023-02-01T00:44:01;7.90;99.90
13326;DHT22;6732;51.044;3.746;2023-02-01T00:46:28;7.90;99.90
13326;DHT22;6732;51.044;3.746;2023-02-01T00:48:54;7.90;99.90
13326;DHT22;6732;51.044;3.746;2023-02-01T00:51:23;7.90;99.90
13326;DHT22;6732;51.044;3.746;2023-02-01T00:53:49;7.90;99.90
13326;DHT22;6732;51.044;3.746;2023-02-01T00:56:15;7.90;99.90
13326;DHT22;6732;51.044;3.746;2023-02-01T00:58:41;7.90;99.90
13326;DHT22;6732;51.044;3.746;2023-02-01T01:01:20;7.90;99.90
13326;DHT22;6732;51.044;3.746;2023-02-01T01:03:52;7.90;99.90
13326;DHT22;6732;51.044;3.746;2023-02-01T01:06:30;7.80;99.90
13326;DHT22;6732;51.044;3.746;2023-02-01T01:08:58;7.80;99.90
13326;DHT22;6732;51.044;3.746;2023-02-01T01:11:28;7.80;99.90
13326;DHT22;6732;51.044;3.746;2023-02-01T01:13:55;7.80;99.90
13326;DHT22;6732;51.044;3.746;2023-02-01T01:16:23;7.80;99.90
13326;DHT22;6732;51.044;3.746;2023-02-01T01:18:49;7.80;99.90
13326;DHT22;6732;51.044;3.746;2023-02-01T01:21:16;7.80;99.90
13326;DHT22;6732;51.044;3.746;2023-02-01T01:23:43;7.80;99.90
13326;DHT22;6732;51.044;3.746;2023-02-01T01:26:18;7.70;99.90
13326;DHT22;6732;51.044;3.746;2023-02-01T01:28:44;7.70;99.90
13326;DHT22;6732;51.044;3.746;2023-02-01T01:31:13;7.70;99.90
13326;DHT22;6732;51.044;3.746;2023-02-01T01:33:39;7.70;99.90
13326;DHT22;6732;51.044;3.746;2023-02-01T01:36:07;7.70;99.90
13326;DHT22;6732;51.044;3.746;2023-02-01T01:38:33;7.70;99.90
13326;DHT22;6732;51.044;3.746;2023-02-01T01:41:00;7.70;99.90
13326;DHT22;6732;51.044;3.746;2023-02-01T01:43:53;7.70;99.90
13326;DHT22;6732;51.044;3.746;2023-02-01T01:46:22;7.60;99.90
13326;DHT22;6732;51.044;3.746;2023-02-01T01:48:57;7.60;99.90
13326;DHT22;6732;51.044;3.746;2023-02-01T01:51:24;7.60;99.90
13326;DHT22;6732;51.044;3.746;2023-02-01T01:54:31;7.60;99.90
13326;DHT22;6732;51.044;3.746;2023-02-01T01:56:52;7.60;99.90
13326;DHT22;6732;51.044;3.746;2023-02-01T01:59:22;7.60;99.90
13326;DHT22;6732;51.044;3.746;2023-02-01T02:01:49;7.50;99.90
13326;DHT22;6732;51.044;3.746;2023-02-01T02:04:16;7.50;99.90
13326;DHT22;6732;51.044;3.746;2023-02-01T02:06:47;7.50;99.90
13326;DHT22;6732;51.044;3.746;2023-02-01T02:09:14;7.50;99.90
13326;DHT22;6732;51.044;3.746;2023-02-01T02:11:41;7.50;99.90
13326;DHT22;6732;51.044;3.746;2023-02-01T02:14:10;7.50;99.90
13326;DHT22;6732;51.044;3.746;2023-02-01T02:20:08;7.50;99.90
13326;DHT22;6732;51.044;3.746;2023-02-01T02:36:50;7.40;99.90
13326;DHT22;6732;51.044;3.746;2023-02-01T02:46:04;7.30;99.90
13326;DHT22;6732;51.044;3.746;2023-02-01T02:49:20;7.30;99.90
13326;DHT22;6732;51.044;3.746;2023-02-01T02:52:15;7.30;99.90
13326;DHT22;6732;51.044;3.746;2023-02-01T02:55:03;7.30;99.90
13326;DHT22;6732;51.044;3.746;2023-02-01T02:57:34;7.30;99.90
13326;DHT22;6732;51.044;3.746;2023-02-01T03:00:22;7.30;99.90
13326;DHT22;6732;51.044;3.746;2023-02-01T03:03:08;7.30;99.90
13326;DHT22;6732;51.044;3.746;2023-02-01T03:05:53;7.30;99.90
13326;DHT22;6732;51.044;3.746;2023-02-01T03:08:27;7.30;99.90
13326;DHT22;6732;51.044;3.746;2023-02-01T03:10:58;7.20;99.90
13326;DHT22;6732;51.044;3.746;2023-02-01T03:13:33;7.30;99.90
13326;DHT22;6732;51.044;3.746;2023-02-01T03:16:16;7.20;99.90
13326;DHT22;6732;51.044;3.746;2023-02-01T03:21:30;7.30;99.90
13326;DHT22;6732;51.044;3.746;2023-02-01T03:24:04;7.30;99.90
13326;DHT22;6732;51.044;3.746;2023-02-01T03:26:36;7.30;99.90
13326;DHT22;6732;51.044;3.746;2023-02-01T03:29:21;7.30;99.90
13326;DHT22;6732;51.044;3.746;2023-02-01T03:31:49;7.30;99.90
13326;DHT22;6732;51.044;3.746;2023-02-01T03:34:16;7.30;99.90
13326;DHT22;6732;51.044;3.746;2023-02-01T03:36:50;7.30;99.90
13326;DHT22;6732;51.044;3.746;2023-02-01T03:41:58;7.30;99.90
13326;DHT22;6732;51.044;3.746;2023-02-01T03:44:28;7.30;99.90
13326;DHT22;6732;51.044;3.746;2023-02-01T03:47:02;7.30;99.90
13326;DHT22;6732;51.044;3.746;2023-02-01T03:49:32;7.30;99.90
13326;DHT22;6732;51.044;3.746;2023-02-01T03:52:00;7.30;99.90
13326;DHT22;6732;51.044;3.746;2023-02-01T03:54:28;7.20;99.90
13326;DHT22;6732;51.044;3.746;2023-02-01T03:56:56;7.30;99.90
13326;DHT22;6732;51.044;3.746;2023-02-01T03:59:23;7.30;99.90
13326;DHT22;6732;51.044;3.746;2023-02-01T04:01:49;7.30;99.90
13326;DHT22;6732;51.044;3.746;2023-02-01T04:04:16;7.30;99.90
13326;DHT22;6732;51.044;3.746;2023-02-01T04:06:50;7.20;99.90
13326;DHT22;6732;51.044;3.746;2023-02-01T04:09:16;7.20;99.90
13326;DHT22;6732;51.044;3.746;2023-02-01T04:11:43;7.20;99.90
13326;DHT22;6732;51.044;3.746;2023-02-01T04:14:09;7.20;99.90
13326;DHT22;6732;51.044;3.746;2023-02-01T04:16:35;7.20;99.90
13326;DHT22;6732;51.044;3.746;2023-02-01T04:19:01;7.20;99.90
13326;DHT22;6732;51.044;3.746;2023-02-01T04:21:27;7.20;99.90
13326;DHT22;6732;51.044;3.746;2023-02-01T04:23:53;7.20;99.90
13326;DHT22;6732;51.044;3.746;2023-02-01T04:26:20;7.10;99.90
13326;DHT22;6732;51.044;3.746;2023-02-01T04:28:47;7.20;99.90
13326;DHT22;6732;51.044;3.746;2023-02-01T04:31:18;7.10;99.90
13326;DHT22;6732;51.044;3.746;2023-02-01T04:33:52;7.10;99.90
13326;DHT22;6732;51.044;3.746;2023-02-01T04:36:19;7.10;99.90
13326;DHT22;6732;51.044;3.746;2023-02-01T04:38:49;7.10;99.90
13326;DHT22;6732;51.044;3.746;2023-02-01T04:41:16;7.10;99.90
13326;DHT22;6732;51.044;3.746;2023-02-01T04:43:48;7.10;99.90
13326;DHT22;6732;51.044;3.746;2023-02-01T04:46:15;7.10;99.90
13326;DHT22;6732;51.044;3.746;2023-02-01T04:48:41;7.10;99.90
13326;DHT22;6732;51.044;3.746;2023-02-01T04:51:08;7.10;99.90
13326;DHT22;6732;51.044;3.746;2023-02-01T04:53:34;7.10;99.90
13326;DHT22;6732;51.044;3.746;2023-02-01T04:56:00;7.10;99.90
13326;DHT22;6732;51.044;3.746;2023-02-01T04:58:26;7.10;99.90
13326;DHT22;6732;51.044;3.746;2023-02-01T05:00:51;7.10;99.90
13326;DHT22;6732;51.044;3.746;2023-02-01T05:03:18;7.10;99.90
13326;DHT22;6732;51.044;3.746;2023-02-01T05:05:44;7.10;99.90
13326;DHT22;6732;51.044;3.746;2023-02-01T05:08:10;7.10;99.90
13326;DHT22;6732;51.044;3.746;2023-02-01T05:10:36;7.10;99.90
13326;DHT22;6732;51.044;3.746;2023-02-01T05:13:02;7.10;99.90
13326;DHT22;6732;51.044;3.746;2023-02-01T05:15:46;7.10;99.90
13326;DHT22;6732;51.044;3.746;2023-02-01T05:18:12;7.00;99.90
13326;DHT22;6732;51.044;3.746;2023-02-01T05:20:39;7.00;99.90
13326;DHT22;6732;51.044;3.746;2023-02-01T05:23:04;7.00;99.90
13326;DHT22;6732;51.044;3.746;2023-02-01T05:25:31;7.00;99.90
13326;DHT22;6732;51.044;3.746;2023-02-01T05:27:57;7.00;99.90
13326;DHT22;6732;51.044;3.746;2023-02-01T05:30:23;7.00;99.90
13326;DHT22;6732;51.044;3.746;2023-02-01T05:32:52;7.00;99.90
13326;DHT22;6732;51.044;3.746;2023-02-01T05:35:19;7.00;99.90
13326;DHT22;6732;51.044;3.746;2023-02-01T05:37:45;7.00;99.90
13326;DHT22;6732;51.044;3.746;2023-02-01T05:40:11;7.00;99.90
13326;DHT22;6732;51.044;3.746;2023-02-01T05:42:37;7.00;99.90
13326;DHT22;6732;51.044;3.746;2023-02-01T05:45:03;7.00;99.90
13326;DHT22;6732;51.044;3.746;2023-02-01T05:47:31;7.00;99.90
13326;DHT22;6732;51.044;3.746;2023-02-01T05:49:57;7.00;99.90
13326;DHT22;6732;51.044;3.746;2023-02-01T05:52:22;7.00;99.90
13326;DHT22;6732;51.044;3.746;2023-02-01T05:54:49;7.00;99.90
13326;DHT22;6732;51.044;3.746;2023-02-01T05:57:15;7.00;99.90
13326;DHT22;6732;51.044;3.746;2023-02-01T05:59:41;6.90;99.90
13326;DHT22;6732;51.044;3.746;2023-02-01T06:02:07;6.90;99.90
13326;DHT22;6732;51.044;3.746;2023-02-01T06:04:34;6.90;99.90
13326;DHT22;6732;51.044;3.746;2023-02-01T06:07:00;6.90;99.90
13326;DHT22;6732;51.044;3.746;2023-02-01T06:09:26;6.90;99.90
13326;DHT22;6732;51.044;3.746;2023-02-01T06:11:52;6.90;99.90
13326;DHT22;6732;51.044;3.746;2023-02-01T06:14:17;6.90;99.90
13326;DHT22;6732;51.044;3.746;2023-02-01T06:16:43;6.90;99.90
13326;DHT22;6732;51.044;3.746;2023-02-01T06:19:11;6.90;99.90
13326;DHT22;6732;51.044;3.746;2023-02-01T06:21:37;6.90;99.90
13326;DHT22;6732;51.044;3.746;2023-02-01T06:24:03;6.90;99.90
13326;DHT22;6732;51.044;3.746;2023-02-01T06:26:29;6.90;99.90
13326;DHT22;6732;51.044;3.746;2023-02-01T06:28:55;6.90;99.90
13326;DHT22;6732;51.044;3.746;2023-02-01T06:31:22;6.90;99.90
13326;DHT22;6732;51.044;3.746;2023-02-01T06:33:48;6.90;99.90
13326;DHT22;6732;51.044;3.746;2023-02-01T06:36:14;6.90;99.90
13326;DHT22;6732;51.044;3.746;2023-02-01T06:38:47;6.80;99.90
13326;DHT22;6732;51.044;3.746;2023-02-01T06:41:13;6.80;99.90
13326;DHT22;6732;51.044;3.746;2023-02-01T06:43:39;6.80;99.90
13326;DHT22;6732;51.044;3.746;2023-02-01T06:46:08;6.80;99.90
13326;DHT22;6732;51.044;3.746;2023-02-01T06:48:35;6.80;99.90
13326;DHT22;6732;51.044;3.746;2023-02-01T06:51:01;6.90;99.90
13326;DHT22;6732;51.044;3.746;2023-02-01T06:53:27;6.90;99.90
13326;DHT22;6732;51.044;3.746;2023-02-01T06:56:01;6.90;99.90
13326;DHT22;6732;51.044;3.746;2023-02-01T06:58:31;6.90;99.90
13326;DHT22;6732;51.044;3.746;2023-02-01T07:01:00;6.90;99.90
13326;DHT22;6732;51.044;3.746;2023-02-01T07:03:29;6.90;99.90
13326;DHT22;6732;51.044;3.746;2023-02-01T07:05:56;6.80;99.90
13326;DHT22;6732;51.044;3.746;2023-02-01T07:08:26;6.90;99.90
13326;DHT22;6732;51.044;3.746;2023-02-01T07:10:52;6.80;99.90
13326;DHT22;6732;51.044;3.746;2023-02-01T07:13:18;6.80;99.90
13326;DHT22;6732;51.044;3.746;2023-02-01T07:15:44;6.80;99.90
13326;DHT22;6732;51.044;3.746;2023-02-01T07:18:14;6.80;99.90
13326;DHT22;6732;51.044;3.746;2023-02-01T07:20:41;6.80;99.90
13326;DHT22;6732;51.044;3.746;2023-02-01T07:23:09;6.80;99.90
13326;DHT22;6732;51.044;3.746;2023-02-01T07:25:35;6.80;99.90
13326;DHT22;6732;51.044;3.746;2023-02-01T07:28:02;6.80;99.90
13326;DHT22;6732;51.044;3.746;2023-02-01T07:30:28;6.80;99.90
13326;DHT22;6732;51.044;3.746;2023-02-01T07:32:54;6.80;99.90
13326;DHT22;6732;51.044;3.746;2023-02-01T07:35:20;6.80;99.90
13326;DHT22;6732;51.044;3.746;2023-02-01T07:37:46;6.80;99.90
13326;DHT22;6732;51.044;3.746;2023-02-01T07:40:12;6.80;99.90
13326;DHT22;6732;51.044;3.746;2023-02-01T07:42:38;6.80;99.90
13326;DHT22;6732;51.044;3.746;2023-02-01T07:45:05;6.80;99.90
13326;DHT22;6732;51.044;3.746;2023-02-01T07:47:31;6.70;99.90
13326;DHT22;6732;51.044;3.746;2023-02-01T07:49:57;6.80;99.90
13326;DHT22;6732;51.044;3.746;2023-02-01T07:52:23;6.80;99.90
13326;DHT22;6732;51.044;3.746;2023-02-01T07:54:49;6.80;99.90
13326;DHT22;6732;51.044;3.746;2023-02-01T07:57:14;6.80;99.90
13326;DHT22;6732;51.044;3.746;2023-02-01T07:59:40;6.70;99.90
13326;DHT22;6732;51.044;3.746;2023-02-01T08:02:26;6.80;99.90
13326;DHT22;6732;51.044;3.746;2023-02-01T08:04:52;6.80;99.90
13326;DHT22;6732;51.044;3.746;2023-02-01T08:07:19;6.80;99.90
13326;DHT22;6732;51.044;3.746;2023-02-01T08:09:45;6.80;99.90
13326;DHT22;6732;51.044;3.746;2023-02-01T08:12:10;6.80;99.90
13326;DHT22;6732;51.044;3.746;2023-02-01T08:14:36;6.80;99.90
13326;DHT22;6732;51.044;3.746;2023-02-01T08:17:02;6.80;99.90
13326;DHT22;6732;51.044;3.746;2023-02-01T08:19:28;6.80;99.90
13326;DHT22;6732;51.044;3.746;2023-02-01T08:21:54;6.80;99.90
13326;DHT22;6732;51.044;3.746;2023-02-01T08:24:20;6.80;99.90
13326;DHT22;6732;51.044;3.746;2023-02-01T08:26:46;6.80;99.90
13326;DHT22;6732;51.044;3.746;2023-02-01T08:29:12;6.80;99.90
13326;DHT22;6732;51.044;3.746;2023-02-01T08:31:39;6.90;99.90
13326;DHT22;6732;51.044;3.746;2023-02-01T08:34:09;6.90;99.90
13326;DHT22;6732;51.044;3.746;2023-02-01T08:36:35;6.90;99.90
13326;DHT22;6732;51.044;3.746;2023-02-01T08:39:01;6.90;99.90
13326;DHT22;6732;51.044;3.746;2023-02-01T08:41:31;6.90;99.90
13326;DHT22;6732;51.044;3.746;2023-02-01T08:43:57;6.90;99.90
13326;DHT22;6732;51.044;3.746;2023-02-01T08:46:23;6.90;99.90
13326;DHT22;6732;51.044;3.746;2023-02-01T08:48:49;6.90;99.90
13326;DHT22;6732;51.044;3.746;2023-02-01T08:51:18;7.00;99.90
13326;DHT22;6732;51.044;3.746;2023-02-01T08:53:45;7.00;99.90
13326;DHT22;6732;51.044;3.746;2023-02-01T08:56:13;7.00;99.90
13326;DHT22;6732;51.044;3.746;2023-02-01T08:58:39;7.00;99.90
13326;DHT22;6732;51.044;3.746;2023-02-01T09:01:06;7.00;99.90
13326;DHT22;6732;51.044;3.746;2023-02-01T09:03:33;7.00;99.90
13326;DHT22;6732;51.044;3.746;2023-02-01T09:06:03;7.00;99.90
13326;DHT22;6732;51.044;3.746;2023-02-01T09:08:29;7.10;99.90
13326;DHT22;6732;51.044;3.746;2023-02-01T09:11:04;7.10;99.90
13326;DHT22;6732;51.044;3.746;2023-02-01T09:13:31;7.10;99.90
13326;DHT22;6732;51.044;3.746;2023-02-01T09:15:57;7.20;99.90
13326;DHT22;6732;51.044;3.746;2023-02-01T09:18:25;7.20;99.90
13326;DHT22;6732;51.044;3.746;2023-02-01T09:20:51;7.20;99.90
13326;DHT22;6732;51.044;3.746;2023-02-01T09:23:17;7.20;99.90
13326;DHT22;6732;51.044;3.746;2023-02-01T09:25:46;7.30;99.90
13326;DHT22;6732;51.044;3.746;2023-02-01T09:28:12;7.30;99.90
13326;DHT22;6732;51.044;3.746;2023-02-01T09:30:38;7.30;99.90
13326;DHT22;6732;51.044;3.746;2023-02-01T09:33:04;7.40;99.90
13326;DHT22;6732;51.044;3.746;2023-02-01T09:35:30;7.40;99.90
13326;DHT22;6732;51.044;3.746;2023-02-01T09:37:56;7.40;99.90
13326;DHT22;6732;51.044;3.746;2023-02-01T09:40:22;7.40;99.90
13326;DHT22;6732;51.044;3.746;2023-02-01T09:46:02;7.50;99.90
13326;DHT22;6732;51.044;3.746;2023-02-01T09:48:35;7.50;99.90
13326;DHT22;6732;51.044;3.746;2023-02-01T09:51:06;7.60;99.90
13326;DHT22;6732;51.044;3.746;2023-02-01T09:53:38;7.60;99.90
13326;DHT22;6732;51.044;3.746;2023-02-01T09:56:15;7.60;99.90
13326;DHT22;6732;51.044;3.746;2023-02-01T10:01:32;7.70;99.90
13326;DHT22;6732;51.044;3.746;2023-02-01T10:04:03;7.70;99.90
13326;DHT22;6732;51.044;3.746;2023-02-01T10:06:57;7.70;99.90
13326;DHT22;6732;51.044;3.746;2023-02-01T10:09:47;7.70;99.90
13326;DHT22;6732;51.044;3.746;2023-02-01T10:21:05;7.80;99.90
13326;DHT22;6732;51.044;3.746;2023-02-01T10:23:48;7.80;99.90
13326;DHT22;6732;51.044;3.746;2023-02-01T10:26:23;7.90;99.90
13326;DHT22;6732;51.044;3.746;2023-02-01T10:29:02;7.90;99.90
13326;DHT22;6732;51.044;3.746;2023-02-01T10:31:30;7.90;99.90
13326;DHT22;6732;51.044;3.746;2023-02-01T10:33:59;7.90;99.90
13326;DHT22;6732;51.044;3.746;2023-02-01T10:36:36;7.90;99.90
13326;DHT22;6732;51.044;3.746;2023-02-01T10:39:06;8.00;99.90
13326;DHT22;6732;51.044;3.746;2023-02-01T10:41:35;8.00;99.90
13326;DHT22;6732;51.044;3.746;2023-02-01T10:44:05;8.10;99.90
13326;DHT22;6732;51.044;3.746;2023-02-01T10:46:33;8.10;99.90
13326;DHT22;6732;51.044;3.746;2023-02-01T10:49:03;8.10;99.90
13326;DHT22;6732;51.044;3.746;2023-02-01T10:52:01;8.10;99.90
13326;DHT22;6732;51.044;3.746;2023-02-01T10:54:36;8.20;99.90
13326;DHT22;6732;51.044;3.746;2023-02-01T10:57:31;8.10;99.90
13326;DHT22;6732;51.044;3.746;2023-02-01T10:59:57;8.20;99.90
13326;DHT22;6732;51.044;3.746;2023-02-01T11:02:30;8.20;99.90
13326;DHT22;6732;51.044;3.746;2023-02-01T11:05:08;8.20;99.90
13326;DHT22;6732;51.044;3.746;2023-02-01T11:07:39;8.30;99.90
13326;DHT22;6732;51.044;3.746;2023-02-01T11:10:35;8.40;99.90
13326;DHT22;6732;51.044;3.746;2023-02-01T11:13:03;8.40;99.90
13326;DHT22;6732;51.044;3.746;2023-02-01T11:15:29;8.50;99.90
13326;DHT22;6732;51.044;3.746;2023-02-01T11:17:55;8.50;99.90
13326;DHT22;6732;51.044;3.746;2023-02-01T11:22:57;8.60;99.90
13326;DHT22;6732;51.044;3.746;2023-02-01T11:25:23;8.70;99.90
13326;DHT22;6732;51.044;3.746;2023-02-01T11:27:51;8.70;99.90
13326;DHT22;6732;51.044;3.746;2023-02-01T11:30:27;8.80;99.90
13326;DHT22;6732;51.044;3.746;2023-02-01T11:32:57;8.80;99.90
13326;DHT22;6732;51.044;3.746;2023-02-01T11:35:23;8.80;99.90
13326;DHT22;6732;51.044;3.746;2023-02-01T11:37:58;8.90;99.90
13326;DHT22;6732;51.044;3.746;2023-02-01T11:40:37;8.90;99.90
13326;DHT22;6732;51.044;3.746;2023-02-01T11:45:33;9.00;99.90
13326;DHT22;6732;51.044;3.746;2023-02-01T11:48:00;9.00;99.90
13326;DHT22;6732;51.044;3.746;2023-02-01T11:50:38;9.00;99.90
13326;DHT22;6732;51.044;3.746;2023-02-01T11:53:09;9.10;99.90
13326;DHT22;6732;51.044;3.746;2023-02-01T11:56:02;9.10;99.90
13326;DHT22;6732;51.044;3.746;2023-02-01T11:58:52;9.10;99.90
13326;DHT22;6732;51.044;3.746;2023-02-01T12:06:54;9.10;99.90
13326;DHT22;6732;51.044;3.746;2023-02-01T12:12:19;9.20;99.90
13326;DHT22;6732;51.044;3.746;2023-02-01T12:18:01;9.30;99.90
13326;DHT22;6732;51.044;3.746;2023-02-01T12:26:38;9.40;99.90
13326;DHT22;6732;51.044;3.746;2023-02-01T12:35:37;9.60;99.90
13326;DHT22;6732;51.044;3.746;2023-02-01T12:40:56;9.60;99.90
13326;DHT22;6732;51.044;3.746;2023-02-01T12:46:15;9.60;99.90
13326;DHT22;6732;51.044;3.746;2023-02-01T12:49:05;9.60;99.90
13326;DHT22;6732;51.044;3.746;2023-02-01T12:51:38;9.60;99.90
13326;DHT22;6732;51.044;3.746;2023-02-01T12:54:35;9.60;99.90
13326;DHT22;6732;51.044;3.746;2023-02-01T13:05:22;9.70;99.90
13326;DHT22;6732;51.044;3.746;2023-02-01T13:08:09;9.70;99.90
13326;DHT22;6732;51.044;3.746;2023-02-01T13:10:43;9.70;99.90
13326;DHT22;6732;51.044;3.746;2023-02-01T13:13:19;9.70;99.90
13326;DHT22;6732;51.044;3.746;2023-02-01T13:18:45;9.70;99.90
13326;DHT22;6732;51.044;3.746;2023-02-01T13:21:17;9.70;99.90
13326;DHT22;6732;51.044;3.746;2023-02-01T13:23:46;9.70;99.90
13326;DHT22;6732;51.044;3.746;2023-02-01T13:26:13;9.80;99.90
13326;DHT22;6732;51.044;3.746;2023-02-01T13:28:55;9.80;99.90
13326;DHT22;6732;51.044;3.746;2023-02-01T13:32:05;9.80;99.90
13326;DHT22;6732;51.044;3.746;2023-02-01T13:37:23;9.80;99.90
13326;DHT22;6732;51.044;3.746;2023-02-01T13:45:18;10.00;99.90
13326;DHT22;6732;51.044;3.746;2023-02-01T13:47:47;10.00;99.90
13326;DHT22;6732;51.044;3.746;2023-02-01T13:50:29;10.00;99.90
13326;DHT22;6732;51.044;3.746;2023-02-01T13:53:03;10.00;99.90
13326;DHT22;6732;51.044;3.746;2023-02-01T13:55:36;10.00;99.90
13326;DHT22;6732;51.044;3.746;2023-02-01T13:58:29;10.10;99.90
13326;DHT22;6732;51.044;3.746;2023-02-01T14:04:06;10.00;99.90
13326;DHT22;6732;51.044;3.746;2023-02-01T14:06:44;10.00;99.90
13326;DHT22;6732;51.044;3.746;2023-02-01T14:16:43;9.90;99.90
13326;DHT22;6732;51.044;3.746;2023-02-01T14:24:32;9.90;99.90
13326;DHT22;6732;51.044;3.746;2023-02-01T14:29:39;9.90;99.90
13326;DHT22;6732;51.044;3.746;2023-02-01T14:32:20;9.90;99.90
13326;DHT22;6732;51.044;3.746;2023-02-01T14:42:20;9.80;99.90
13326;DHT22;6732;51.044;3.746;2023-02-01T14:44:48;9.80;99.90
13326;DHT22;6732;51.044;3.746;2023-02-01T14:52:51;9.80;99.90
13326;DHT22;6732;51.044;3.746;2023-02-01T14:55:31;9.70;99.90
13326;DHT22;6732;51.044;3.746;2023-02-01T14:58:02;9.70;99.90
13326;DHT22;6732;51.044;3.746;2023-02-01T15:00:30;9.70;99.90
13326;DHT22;6732;51.044;3.746;2023-02-01T15:05:38;9.70;99.90
13326;DHT22;6732;51.044;3.746;2023-02-01T15:08:16;9.70;99.90
13326;DHT22;6732;51.044;3.746;2023-02-01T15:10:45;9.70;99.90
13326;DHT22;6732;51.044;3.746;2023-02-01T15:13:22;9.60;99.90
13326;DHT22;6732;51.044;3.746;2023-02-01T15:16:12;9.70;99.90
13326;DHT22;6732;51.044;3.746;2023-02-01T15:18:39;9.70;99.90
13326;DHT22;6732;51.044;3.746;2023-02-01T15:21:06;9.70;99.90
13326;DHT22;6732;51.044;3.746;2023-02-01T15:23:33;9.60;99.90
13326;DHT22;6732;51.044;3.746;2023-02-01T15:25:59;9.60;99.90
13326;DHT22;6732;51.044;3.746;2023-02-01T15:28:26;9.60;99.90
13326;DHT22;6732;51.044;3.746;2023-02-01T15:30:58;9.60;99.90
13326;DHT22;6732;51.044;3.746;2023-02-01T15:33:26;9.60;99.90
13326;DHT22;6732;51.044;3.746;2023-02-01T15:35:54;9.60;99.90
13326;DHT22;6732;51.044;3.746;2023-02-01T15:43:40;9.60;99.90
13326;DHT22;6732;51.044;3.746;2023-02-01T15:46:09;9.50;99.90
13326;DHT22;6732;51.044;3.746;2023-02-01T15:48:45;9.50;99.90
13326;DHT22;6732;51.044;3.746;2023-02-01T15:51:18;9.50;99.90
13326;DHT22;6732;51.044;3.746;2023-02-01T15:53:48;9.50;99.90
13326;DHT22;6732;51.044;3.746;2023-02-01T15:56:14;9.50;99.90
13326;DHT22;6732;51.044;3.746;2023-02-01T15:58:43;9.50;99.90
13326;DHT22;6732;51.044;3.746;2023-02-01T16:01:11;9.50;99.90
13326;DHT22;6732;51.044;3.746;2023-02-01T16:03:41;9.50;99.90
13326;DHT22;6732;51.044;3.746;2023-02-01T16:06:26;9.50;99.90
13326;DHT22;6732;51.044;3.746;2023-02-01T16:13:55;9.40;99.90
13326;DHT22;6732;51.044;3.746;2023-02-01T16:16:21;9.40;99.90
13326;DHT22;6732;51.044;3.746;2023-02-01T16:18:46;9.40;99.90
13326;DHT22;6732;51.044;3.746;2023-02-01T16:21:12;9.40;99.90
13326;DHT22;6732;51.044;3.746;2023-02-01T16:23:38;9.40;99.90
13326;DHT22;6732;51.044;3.746;2023-02-01T16:26:04;9.40;99.90
13326;DHT22;6732;51.044;3.746;2023-02-01T16:28:31;9.40;99.90
13326;DHT22;6732;51.044;3.746;2023-02-01T16:30:58;9.40;99.90
13326;DHT22;6732;51.044;3.746;2023-02-01T16:33:24;9.40;99.90
13326;DHT22;6732;51.044;3.746;2023-02-01T16:35:51;9.40;99.90
13326;DHT22;6732;51.044;3.746;2023-02-01T16:38:19;9.40;99.90
13326;DHT22;6732;51.044;3.746;2023-02-01T16:40:48;9.40;99.90
